createdAt,value
2023-02-25T00:00:41.406Z,99996.19
2023-02-25T00:01:51.243Z,99945.94
2023-02-25T00:03:00.315Z,99947.59
2023-02-25T00:04:02.307Z,100013.25
2023-02-25T00:05:07.423Z,99944.34
2023-02-25T00:06:13.596Z,99993.78
2023-02-25T00:07:16.120Z,100018.91
2023-02-25T00:08:17.983Z,100016.41
2023-02-25T00:09:19.846Z,99972.88
2023-02-25T00:10:21.813Z,99991.66
2023-02-25T00:11:25.791Z,100020.69
2023-02-25T00:12:28.892Z,99979.31
2023-02-25T00:13:32.036Z,99982.66
2023-02-25T00:14:33.888Z,99939.00
2023-02-25T00:15:35.803Z,99976.53
2023-02-25T00:16:37.715Z,99987.75
2023-02-25T00:17:40.134Z,99985.22
2023-02-25T00:18:46.988Z,100025.75
2023-02-25T00:19:49.065Z,99976.84
2023-02-25T00:20:51.063Z,99999.78
2023-02-25T00:21:52.914Z,99931.44
2023-02-25T00:22:54.690Z,99987.19
2023-02-25T00:24:04.479Z,99995.06
2023-02-25T00:25:18.869Z,99934.13
2023-02-25T00:26:21.538Z,100019.75
2023-02-25T00:27:24.886Z,100017.38
2023-02-25T00:28:27.504Z,99968.78
2023-02-25T00:29:29.518Z,99959.03
2023-02-25T00:30:31.315Z,100018.50
2023-02-25T00:31:33.322Z,99978.31
2023-02-25T00:32:35.232Z,99984.06
2023-02-25T00:33:42.147Z,99973.03
2023-02-25T00:34:44.228Z,99967.31
2023-02-25T00:35:46.325Z,99968.31
2023-02-25T00:36:48.403Z,100014.84
2023-02-25T00:37:55.682Z,99976.38
2023-02-25T00:38:59.159Z,99943.69
2023-02-25T00:40:00.950Z,99992.66
2023-02-25T00:41:14.101Z,100022.78
2023-02-25T00:42:18.528Z,99960.00
2023-02-25T00:43:20.886Z,100019.97
2023-02-25T00:44:22.688Z,99967.63
2023-02-25T00:45:24.676Z,100004.34
2023-02-25T00:46:27.497Z,99963.28
2023-02-25T00:47:29.354Z,99999.44
2023-02-25T00:48:31.208Z,99984.38
2023-02-25T00:49:33.521Z,100013.53
2023-02-25T00:50:35.768Z,100017.06
2023-02-25T00:51:39.117Z,100019.84
2023-02-25T00:52:41.436Z,99999.06
2023-02-25T00:53:43.832Z,99973.06
2023-02-25T00:54:45.858Z,99906.88
2023-02-25T00:55:47.642Z,99980.09
2023-02-25T00:56:49.513Z,99998.28
2023-02-25T00:57:51.447Z,99961.06
2023-02-25T00:58:53.860Z,100030.00
2023-02-25T00:59:55.799Z,99973.97
2023-02-25T01:00:57.693Z,99962.22
2023-02-25T01:01:59.683Z,100020.69
2023-02-25T01:03:01.684Z,99956.63
2023-02-25T01:04:04.212Z,100038.28
2023-02-25T01:05:06.770Z,100012.03
2023-02-25T01:06:09.824Z,100000.03
2023-02-25T01:07:11.714Z,100011.22
2023-02-25T01:08:13.505Z,100026.44
2023-02-25T01:09:15.592Z,100040.88
2023-02-25T01:10:18.023Z,100029.56
2023-02-25T01:11:21.307Z,100051.75
2023-02-25T01:12:24.235Z,99979.38
2023-02-25T01:13:28.244Z,100051.91
2023-02-25T01:14:30.260Z,100055.41
2023-02-25T01:15:32.120Z,100013.09
2023-02-25T01:16:35.976Z,100034.63
2023-02-25T01:17:39.443Z,99996.88
2023-02-25T01:18:42.028Z,99983.84
2023-02-25T01:19:43.813Z,100037.84
2023-02-25T01:20:46.747Z,100063.00
2023-02-25T01:21:51.915Z,100068.34
2023-02-25T01:22:53.915Z,100033.94
2023-02-25T01:24:06.746Z,100075.34
2023-02-25T01:25:13.083Z,100073.53
2023-02-25T01:26:15.794Z,100044.78
2023-02-25T01:27:18.139Z,99997.34
2023-02-25T01:28:19.959Z,100079.28
2023-02-25T01:29:31.763Z,100042.41
2023-02-25T01:30:37.363Z,100015.91
2023-02-25T01:31:39.758Z,100070.31
2023-02-25T01:32:43.195Z,100028.41
2023-02-25T01:33:45.616Z,100028.22
2023-02-25T01:34:47.665Z,100052.75
2023-02-25T01:35:49.461Z,100016.53
2023-02-25T01:36:51.870Z,100084.91
2023-02-25T01:37:53.891Z,100043.09
2023-02-25T01:38:56.484Z,100081.84
2023-02-25T01:39:58.614Z,100026.19
2023-02-25T01:41:02.103Z,100040.84
2023-02-25T01:42:13.817Z,100092.22
2023-02-25T01:43:16.334Z,99951.56
2023-02-25T01:44:37.871Z,99949.22
2023-02-25T01:45:44.744Z,100074.47
2023-02-25T01:46:48.800Z,100096.56
2023-02-25T01:47:54.943Z,100038.00
2023-02-25T01:48:57.556Z,99995.44
2023-02-25T01:49:59.534Z,100069.28
2023-02-25T01:51:06.264Z,100065.38
2023-02-25T01:52:15.752Z,100077.28
2023-02-25T01:53:26.934Z,100078.25
2023-02-25T01:54:29.118Z,100079.69
2023-02-25T01:55:32.009Z,100044.69
2023-02-25T01:56:36.632Z,100084.03
2023-02-25T01:57:38.637Z,100045.00
2023-02-25T01:58:42.000Z,100043.31
2023-02-25T01:59:44.836Z,100068.38
2023-02-25T02:00:47.635Z,100071.88
2023-02-25T02:01:49.831Z,100063.34
2023-02-25T02:02:51.761Z,100074.78
2023-02-25T02:03:54.041Z,100043.91
2023-02-25T02:04:56.380Z,100115.41
2023-02-25T02:06:13.036Z,100085.44
2023-02-25T02:07:15.360Z,100110.78
2023-02-25T02:08:17.298Z,100121.72
2023-02-25T02:09:24.210Z,100096.78
2023-02-25T02:10:26.120Z,100093.41
2023-02-25T02:11:29.440Z,100077.03
2023-02-25T02:12:38.019Z,100119.06
2023-02-25T02:13:45.090Z,100116.38
2023-02-25T02:14:46.947Z,100082.94
2023-02-25T02:16:16.103Z,100121.41
2023-02-25T02:17:34.041Z,100074.09
2023-02-25T02:18:40.392Z,100083.75
2023-02-25T02:19:48.050Z,100119.75
2023-02-25T02:21:32.918Z,100125.75
2023-02-25T02:22:59.117Z,100130.63
2023-02-25T02:24:35.592Z,100126.16
2023-02-25T02:25:59.082Z,100131.78
2023-02-25T02:27:07.749Z,100128.84
2023-02-25T02:28:45.714Z,100108.28
2023-02-25T02:30:08.762Z,100131.91
2023-02-25T02:31:19.670Z,100139.38
2023-02-25T02:32:32.199Z,100127.16
2023-02-25T02:34:02.992Z,100128.31
2023-02-25T02:35:27.677Z,100131.69
2023-02-25T02:36:51.750Z,100132.66
2023-02-25T02:38:32.128Z,100124.81
2023-02-25T02:39:58.404Z,100136.03
2023-02-25T02:41:44.484Z,100138.53
2023-02-25T02:43:24.818Z,100056.81
2023-02-25T02:44:48.189Z,100131.38
2023-02-25T02:46:19.632Z,100140.78
2023-02-25T02:47:38.455Z,100124.38
2023-02-25T02:48:51.395Z,100065.50
2023-02-25T02:50:02.594Z,100105.38
2023-02-25T02:51:15.491Z,100102.00
2023-02-25T02:52:23.874Z,100096.28
2023-02-25T02:53:28.873Z,100056.31
2023-02-25T02:54:35.655Z,100143.03
2023-02-25T02:55:43.534Z,100143.03
2023-02-25T02:56:49.773Z,100146.53
2023-02-25T02:57:58.253Z,100118.84
2023-02-25T02:59:07.491Z,100080.38
2023-02-25T03:00:26.634Z,100137.59
2023-02-25T03:01:32.694Z,100089.47
2023-02-25T03:02:38.310Z,100117.03
2023-02-25T03:03:47.192Z,100132.00
2023-02-25T03:04:51.918Z,100128.50
2023-02-25T03:05:54.277Z,100031.69
2023-02-25T03:07:02.092Z,100130.75
2023-02-25T03:08:25.959Z,100007.63
2023-02-25T03:09:32.630Z,100113.69
2023-02-25T03:10:35.092Z,100110.31
2023-02-25T03:11:37.050Z,100045.38
2023-02-25T03:12:39.390Z,100113.69
2023-02-25T03:13:41.902Z,100114.38
2023-02-25T03:14:44.433Z,100065.56
2023-02-25T03:15:49.073Z,100125.31
2023-02-25T03:17:04.790Z,100123.63
2023-02-25T03:18:31.369Z,100166.31
2023-02-25T03:19:40.151Z,100138.28
2023-02-25T03:20:45.004Z,100124.88
2023-02-25T03:21:52.636Z,100170.63
2023-02-25T03:22:58.472Z,100142.22
2023-02-25T03:24:02.843Z,100135.97
2023-02-25T03:25:29.436Z,100175.28
2023-02-25T03:26:34.081Z,100117.59
2023-02-25T03:27:44.068Z,100177.66
2023-02-25T03:28:48.041Z,100179.47
2023-02-25T03:29:50.474Z,100171.91
2023-02-25T03:31:02.249Z,100181.88
2023-02-25T03:32:10.657Z,100117.19
2023-02-25T03:33:20.504Z,100067.22
2023-02-25T03:34:32.304Z,100160.16
2023-02-25T03:35:35.726Z,100183.41
2023-02-25T03:36:52.993Z,100180.06
2023-02-25T03:38:00.814Z,100130.47
2023-02-25T03:39:11.168Z,100086.69
2023-02-25T03:40:16.396Z,100138.63
2023-02-25T03:41:21.386Z,100197.72
2023-02-25T03:42:29.432Z,100191.69
2023-02-25T03:43:37.207Z,100101.25
2023-02-25T03:44:46.645Z,100164.78
2023-02-25T03:45:49.252Z,100113.97
2023-02-25T03:46:53.701Z,100191.81
2023-02-25T03:47:58.386Z,100133.00
2023-02-25T03:49:03.149Z,100150.09
2023-02-25T03:50:25.896Z,100203.28
2023-02-25T03:51:39.614Z,100159.34
2023-02-25T03:52:42.170Z,100152.75
2023-02-25T03:53:57.624Z,100099.72
2023-02-25T03:55:06.355Z,100164.50
2023-02-25T03:56:11.349Z,100201.63
2023-02-25T03:57:16.103Z,100140.88
2023-02-25T03:58:17.958Z,100206.13
2023-02-25T03:59:20.985Z,100143.25
2023-02-25T04:00:29.305Z,100211.72
2023-02-25T04:01:31.635Z,100208.91
2023-02-25T04:02:33.867Z,100178.53
2023-02-25T04:03:35.850Z,100161.31
2023-02-25T04:04:38.201Z,100170.81
2023-02-25T04:05:40.137Z,100126.03
2023-02-25T04:06:42.446Z,100170.97
2023-02-25T04:07:45.062Z,100202.47
2023-02-25T04:08:46.951Z,100146.59
2023-02-25T04:09:48.920Z,100170.16
2023-02-25T04:10:51.075Z,100173.50
2023-02-25T04:11:57.172Z,100108.94
2023-02-25T04:12:59.472Z,100065.53
2023-02-25T04:14:01.461Z,100089.91
2023-02-25T04:15:06.011Z,100220.97
2023-02-25T04:16:10.715Z,100194.06
2023-02-25T04:17:12.621Z,100188.50
2023-02-25T04:18:15.044Z,100236.94
2023-02-25T04:19:16.998Z,100165.91
2023-02-25T04:20:19.891Z,100190.28
2023-02-25T04:21:33.453Z,100149.56
2023-02-25T04:22:35.387Z,100184.44
2023-02-25T04:23:37.252Z,100031.06
2023-02-25T04:24:39.073Z,100078.69
2023-02-25T04:25:41.013Z,100164.09
2023-02-25T04:26:42.836Z,100184.72
2023-02-25T04:27:44.625Z,100193.13
2023-02-25T04:28:46.407Z,100120.84
2023-02-25T04:29:48.381Z,100236.38
2023-02-25T04:30:50.307Z,100199.69
2023-02-25T04:31:52.566Z,100222.09
2023-02-25T04:32:54.530Z,100149.25
2023-02-25T04:33:58.246Z,100177.28
2023-02-25T04:35:03.282Z,100193.78
2023-02-25T04:36:05.614Z,100151.78
2023-02-25T04:37:09.460Z,100188.75
2023-02-25T04:38:11.319Z,100089.16
2023-02-25T04:39:14.738Z,100145.22
2023-02-25T04:40:19.762Z,100219.56
2023-02-25T04:41:23.125Z,100249.84
2023-02-25T04:42:25.150Z,100178.66
2023-02-25T04:43:27.169Z,100202.06
2023-02-25T04:44:29.120Z,100161.44
2023-02-25T04:45:30.917Z,100168.28
2023-02-25T04:46:38.864Z,100250.13
2023-02-25T04:47:41.724Z,100249.16
2023-02-25T04:48:43.527Z,100157.94
2023-02-25T04:49:45.309Z,100193.78
2023-02-25T04:50:47.140Z,100221.81
2023-02-25T04:51:51.521Z,100267.06
2023-02-25T04:52:53.494Z,100180.88
2023-02-25T04:53:55.324Z,100218.31
2023-02-25T04:54:57.208Z,100276.03
2023-02-25T04:56:03.495Z,100226.56
2023-02-25T04:57:05.838Z,100234.28
2023-02-25T04:58:07.742Z,100250.38
2023-02-25T04:59:11.418Z,100233.41
2023-02-25T05:00:19.204Z,100270.97
2023-02-25T05:01:21.291Z,100260.19
2023-02-25T05:02:23.452Z,100146.53
2023-02-25T05:03:25.831Z,100213.41
2023-02-25T05:04:27.774Z,100226.13
2023-02-25T05:05:29.774Z,100217.31
2023-02-25T05:06:31.687Z,100187.88
2023-02-25T05:07:33.541Z,100219.41
2023-02-25T05:08:36.300Z,100277.28
2023-02-25T05:09:38.232Z,100210.03
2023-02-25T05:10:40.084Z,100194.88
2023-02-25T05:11:41.925Z,100259.34
2023-02-25T05:12:43.811Z,100285.25
2023-02-25T05:13:45.881Z,100276.44
2023-02-25T05:14:47.711Z,100210.28
2023-02-25T05:15:50.252Z,100186.44
2023-02-25T05:16:52.718Z,100264.38
2023-02-25T05:17:54.809Z,100242.53
2023-02-25T05:18:56.697Z,100245.59
2023-02-25T05:19:58.675Z,100185.91
2023-02-25T05:21:00.666Z,100244.22
2023-02-25T05:22:02.489Z,100253.72
2023-02-25T05:23:04.298Z,100145.78
2023-02-25T05:24:06.669Z,100256.53
2023-02-25T05:25:10.250Z,100245.47
2023-02-25T05:26:13.740Z,100282.44
2023-02-25T05:27:15.590Z,100246.16
2023-02-25T05:28:17.632Z,100227.38
2023-02-25T05:29:20.183Z,100263.94
2023-02-25T05:30:22.298Z,100275.69
2023-02-25T05:31:26.143Z,100162.72
2023-02-25T05:32:29.967Z,100139.59
2023-02-25T05:33:31.965Z,100237.03
2023-02-25T05:34:35.412Z,100238.00
2023-02-25T05:35:40.868Z,100270.81
2023-02-25T05:36:42.733Z,100249.94
2023-02-25T05:37:44.608Z,100154.72
2023-02-25T05:38:47.666Z,100201.78
2023-02-25T05:39:49.474Z,100280.19
2023-02-25T05:40:51.522Z,100244.16
2023-02-25T05:41:53.561Z,100287.59
2023-02-25T05:42:55.360Z,100265.03
2023-02-25T05:43:58.310Z,100309.19
2023-02-25T05:45:00.279Z,100226.34
2023-02-25T05:46:03.299Z,100196.00
2023-02-25T05:47:05.144Z,100296.00
2023-02-25T05:48:07.210Z,100334.69
2023-02-25T05:49:09.436Z,100333.00
2023-02-25T05:50:11.740Z,100288.69
2023-02-25T05:51:16.743Z,100337.50
2023-02-25T05:52:18.568Z,100238.81
2023-02-25T05:53:20.463Z,100280.28
2023-02-25T05:54:22.330Z,100239.06
2023-02-25T05:55:24.351Z,100296.56
2023-02-25T05:56:30.167Z,100285.03
2023-02-25T05:57:32.944Z,100318.28
2023-02-25T05:58:35.376Z,100304.81
2023-02-25T05:59:37.436Z,100324.03
2023-02-25T06:00:39.763Z,100357.13
2023-02-25T06:01:41.938Z,100283.06
2023-02-25T06:02:44.641Z,100321.47
2023-02-25T06:03:48.614Z,100356.25
2023-02-25T06:04:55.842Z,100336.63
2023-02-25T06:05:57.675Z,100308.69
2023-02-25T06:06:59.532Z,100279.13
2023-02-25T06:08:01.400Z,100338.16
2023-02-25T06:09:06.025Z,100360.75
2023-02-25T06:10:08.312Z,100233.53
2023-02-25T06:11:10.820Z,100326.25
2023-02-25T06:12:13.489Z,100359.91
2023-02-25T06:13:15.655Z,100323.00
2023-02-25T06:14:17.554Z,100335.22
2023-02-25T06:15:19.573Z,100276.84
2023-02-25T06:16:22.380Z,100264.50
2023-02-25T06:17:27.278Z,100312.88
2023-02-25T06:18:29.166Z,100327.91
2023-02-25T06:19:31.278Z,100289.03
2023-02-25T06:20:35.280Z,100366.91
2023-02-25T06:21:37.213Z,100330.56
2023-02-25T06:22:39.046Z,100200.19
2023-02-25T06:23:42.606Z,100309.50
2023-02-25T06:24:44.460Z,100356.78
2023-02-25T06:25:49.431Z,100359.00
2023-02-25T06:26:51.590Z,100337.72
2023-02-25T06:27:53.409Z,100375.81
2023-02-25T06:28:55.700Z,100351.44
2023-02-25T06:30:00.236Z,100333.06
2023-02-25T06:31:02.507Z,100358.44
2023-02-25T06:32:04.483Z,100344.94
2023-02-25T06:33:06.442Z,100393.25
2023-02-25T06:34:08.320Z,100348.59
2023-02-25T06:35:10.295Z,100348.84
2023-02-25T06:36:12.760Z,100337.78
2023-02-25T06:37:16.289Z,100380.69
2023-02-25T06:38:18.550Z,100404.00
2023-02-25T06:39:20.607Z,100387.44
2023-02-25T06:40:22.822Z,100373.13
2023-02-25T06:41:25.755Z,100356.41
2023-02-25T06:42:27.988Z,100364.53
2023-02-25T06:43:29.909Z,100384.59
2023-02-25T06:44:31.689Z,100369.31
2023-02-25T06:45:33.488Z,100374.91
2023-02-25T06:46:35.330Z,100409.97
2023-02-25T06:47:37.337Z,100387.00
2023-02-25T06:48:39.514Z,100419.34
2023-02-25T06:49:41.953Z,100409.97
2023-02-25T06:50:43.981Z,100359.88
2023-02-25T06:51:45.859Z,100301.59
2023-02-25T06:52:47.669Z,100404.75
2023-02-25T06:53:51.209Z,100442.22
2023-02-25T06:54:53.354Z,100431.59
2023-02-25T06:55:55.666Z,100442.22
2023-02-25T06:56:57.505Z,100412.91
2023-02-25T06:57:59.626Z,100424.69
2023-02-25T06:59:01.419Z,100348.00
2023-02-25T07:00:05.701Z,100443.09
2023-02-25T07:01:09.295Z,100460.03
2023-02-25T07:02:15.109Z,100403.63
2023-02-25T07:03:17.560Z,100296.19
2023-02-25T07:04:19.832Z,100446.41
2023-02-25T07:05:21.720Z,100422.28
2023-02-25T07:06:23.884Z,100418.34
2023-02-25T07:07:25.940Z,100449.25
2023-02-25T07:08:27.812Z,100363.66
2023-02-25T07:09:29.798Z,100371.47
2023-02-25T07:10:31.855Z,100424.94
2023-02-25T07:11:35.825Z,100446.31
2023-02-25T07:12:37.716Z,100347.00
2023-02-25T07:13:39.568Z,100424.84
2023-02-25T07:14:41.370Z,100380.34
2023-02-25T07:15:43.466Z,100399.44
2023-02-25T07:16:45.432Z,100400.31
2023-02-25T07:17:47.757Z,100432.03
2023-02-25T07:18:50.944Z,100316.50
2023-02-25T07:19:52.896Z,100370.84
2023-02-25T07:20:54.710Z,100300.78
2023-02-25T07:21:57.017Z,100420.69
2023-02-25T07:22:58.859Z,100415.06
2023-02-25T07:24:00.895Z,100430.50
2023-02-25T07:25:02.787Z,100440.66
2023-02-25T07:26:06.230Z,100413.44
2023-02-25T07:27:08.239Z,100463.13
2023-02-25T07:28:10.055Z,100411.31
2023-02-25T07:29:13.839Z,100435.38
2023-02-25T07:30:15.901Z,100415.59
2023-02-25T07:31:19.559Z,100453.06
2023-02-25T07:32:23.885Z,100336.03
2023-02-25T07:33:25.929Z,100374.63
2023-02-25T07:34:27.903Z,100404.94
2023-02-25T07:35:30.010Z,100443.25
2023-02-25T07:36:35.253Z,100462.38
2023-02-25T07:37:37.893Z,100441.19
2023-02-25T07:38:39.777Z,100463.53
2023-02-25T07:39:41.626Z,100407.91
2023-02-25T07:40:43.405Z,100442.75
2023-02-25T07:41:45.202Z,100469.16
2023-02-25T07:42:47.347Z,100432.66
2023-02-25T07:43:49.282Z,100436.72
2023-02-25T07:44:51.887Z,100463.25
2023-02-25T07:45:57.691Z,100462.25
2023-02-25T07:46:59.664Z,100393.91
2023-02-25T07:48:01.509Z,100482.06
2023-02-25T07:49:03.728Z,100402.59
2023-02-25T07:50:07.858Z,100493.25
2023-02-25T07:51:16.219Z,100472.78
2023-02-25T07:52:18.091Z,100437.69
2023-02-25T07:53:21.975Z,100455.81
2023-02-25T07:54:23.833Z,100451.72
2023-02-25T07:55:25.857Z,100494.41
2023-02-25T07:56:29.665Z,100499.75
2023-02-25T07:57:31.872Z,100452.44
2023-02-25T07:58:34.435Z,100476.84
2023-02-25T07:59:36.421Z,100410.19
2023-02-25T08:00:38.993Z,100464.78
2023-02-25T08:01:40.882Z,100454.69
2023-02-25T08:02:44.492Z,100452.31
2023-02-25T08:03:49.401Z,100480.91
2023-02-25T08:04:51.613Z,100517.41
2023-02-25T08:05:54.368Z,100492.03
2023-02-25T08:06:56.161Z,100489.09
2023-02-25T08:07:57.989Z,100484.72
2023-02-25T08:08:59.783Z,100487.94
2023-02-25T08:10:01.852Z,100493.03
2023-02-25T08:11:08.112Z,100501.97
2023-02-25T08:12:10.189Z,100457.22
2023-02-25T08:13:11.991Z,100481.06
2023-02-25T08:14:13.895Z,100532.72
2023-02-25T08:15:15.747Z,100433.91
2023-02-25T08:16:19.827Z,100509.97
2023-02-25T08:17:21.736Z,100480.06
2023-02-25T08:18:23.543Z,100506.75
2023-02-25T08:19:25.558Z,100523.88
2023-02-25T08:20:27.474Z,100462.25
2023-02-25T08:21:30.891Z,100422.00
2023-02-25T08:22:33.012Z,100491.75
2023-02-25T08:23:35.006Z,100493.13
2023-02-25T08:24:37.081Z,100504.38
2023-02-25T08:25:39.055Z,100545.22
2023-02-25T08:26:41.247Z,100538.06
2023-02-25T08:27:44.234Z,100558.28
2023-02-25T08:28:47.109Z,100452.31
2023-02-25T08:29:49.045Z,100484.28
2023-02-25T08:30:51.220Z,100529.78
2023-02-25T08:31:53.333Z,100510.69
2023-02-25T08:32:55.520Z,100482.88
2023-02-25T08:33:59.520Z,100517.44
2023-02-25T08:35:01.555Z,100495.81
2023-02-25T08:36:09.662Z,100548.72
2023-02-25T08:37:11.822Z,100528.09
2023-02-25T08:38:13.701Z,100526.69
2023-02-25T08:39:15.559Z,100483.59
2023-02-25T08:40:19.903Z,100550.97
2023-02-25T08:41:22.888Z,100516.59
2023-02-25T08:42:25.168Z,100544.38
2023-02-25T08:43:27.122Z,100512.25
2023-02-25T08:44:28.906Z,100546.91
2023-02-25T08:45:40.589Z,100431.53
2023-02-25T08:46:43.517Z,100422.56
2023-02-25T08:47:45.648Z,100554.06
2023-02-25T08:48:50.044Z,100571.75
2023-02-25T08:49:52.005Z,100415.97
2023-02-25T08:50:55.636Z,100555.31
2023-02-25T08:51:57.719Z,100514.34
2023-02-25T08:52:59.534Z,100399.78
2023-02-25T08:54:11.352Z,100575.00
2023-02-25T08:55:16.051Z,100402.50
2023-02-25T08:56:18.464Z,100526.53
2023-02-25T08:57:20.388Z,100524.16
2023-02-25T08:58:22.179Z,100512.25
2023-02-25T08:59:23.991Z,100529.78
2023-02-25T09:00:26.001Z,100533.16
2023-02-25T09:01:44.751Z,100561.22
2023-02-25T09:02:47.799Z,100569.66
2023-02-25T09:03:53.165Z,100501.97
2023-02-25T09:04:55.268Z,100546.63
2023-02-25T09:05:57.139Z,100465.50
2023-02-25T09:06:59.160Z,100415.28
2023-02-25T09:08:01.002Z,100419.91
2023-02-25T09:09:02.999Z,100537.63
2023-02-25T09:10:10.301Z,100589.63
2023-02-25T09:11:12.370Z,100577.94
2023-02-25T09:12:14.354Z,100548.03
2023-02-25T09:13:17.353Z,100604.34
2023-02-25T09:14:20.031Z,100583.47
2023-02-25T09:15:22.102Z,100602.38
2023-02-25T09:16:24.945Z,100439.97
2023-02-25T09:17:26.752Z,100428.59
2023-02-25T09:18:28.762Z,100553.38
2023-02-25T09:19:30.783Z,100562.94
2023-02-25T09:20:32.661Z,100571.22
2023-02-25T09:21:36.374Z,100567.97
2023-02-25T09:22:40.251Z,100551.13
2023-02-25T09:23:42.448Z,100452.31
2023-02-25T09:24:44.256Z,100485.28
2023-02-25T09:25:46.183Z,100553.06
2023-02-25T09:26:48.073Z,100568.84
2023-02-25T09:27:50.065Z,100558.13
2023-02-25T09:28:51.973Z,100554.06
2023-02-25T09:29:53.892Z,100612.78
2023-02-25T09:30:58.097Z,100597.19
2023-02-25T09:32:00.138Z,100556.84
2023-02-25T09:33:02.425Z,100582.88
2023-02-25T09:34:07.043Z,100572.38
2023-02-25T09:35:10.030Z,100591.59
2023-02-25T09:36:13.219Z,100618.41
2023-02-25T09:37:16.462Z,100623.75
2023-02-25T09:38:18.600Z,100528.38
2023-02-25T09:39:20.517Z,100595.25
2023-02-25T09:40:25.099Z,100610.28
2023-02-25T09:41:45.587Z,100629.50
2023-02-25T09:43:29.277Z,100572.75
2023-02-25T09:45:06.270Z,100600.44
2023-02-25T09:46:16.181Z,100620.75
2023-02-25T09:47:23.368Z,100591.16
2023-02-25T09:48:35.845Z,100593.81
2023-02-25T09:49:50.203Z,100623.00
2023-02-25T09:50:57.798Z,100585.97
2023-02-25T09:52:18.758Z,100619.34
2023-02-25T09:53:29.217Z,100591.03
2023-02-25T09:54:37.979Z,100606.75
2023-02-25T09:55:42.212Z,100633.69
2023-02-25T09:56:44.772Z,100583.72
2023-02-25T09:57:56.289Z,100602.41
2023-02-25T09:58:59.189Z,100633.00
2023-02-25T10:00:00.996Z,100628.63
2023-02-25T10:01:16.593Z,100632.28
2023-02-25T10:02:36.985Z,100606.75
2023-02-25T10:04:02.368Z,100633.69
2023-02-25T10:05:15.370Z,100637.75
2023-02-25T10:06:39.664Z,100638.47
2023-02-25T10:07:57.579Z,100638.47
2023-02-25T10:09:29.263Z,100639.59
2023-02-25T10:10:44.684Z,100601.53
2023-02-25T10:11:53.578Z,100642.41
2023-02-25T10:13:15.436Z,100608.03
2023-02-25T10:14:35.845Z,100647.91
2023-02-25T10:16:26.603Z,100650.00
2023-02-25T10:17:44.378Z,100644.78
2023-02-25T10:19:01.745Z,100644.38
2023-02-25T10:20:41.632Z,100645.53
2023-02-25T10:21:52.763Z,100633.16
2023-02-25T10:23:17.382Z,100656.31
2023-02-25T10:25:04.964Z,100634.28
2023-02-25T10:26:18.270Z,100603.50
2023-02-25T10:27:28.164Z,100648.59
2023-02-25T10:28:32.375Z,100650.56
2023-02-25T10:29:42.402Z,100650.00
2023-02-25T10:31:06.087Z,100653.38
2023-02-25T10:32:31.442Z,100652.25
2023-02-25T10:33:40.402Z,100636.69
2023-02-25T10:34:42.834Z,100590.47
2023-02-25T10:35:44.677Z,100651.31
2023-02-25T10:36:53.509Z,100607.31
2023-02-25T10:37:55.420Z,100637.78
2023-02-25T10:38:57.832Z,100600.00
2023-02-25T10:40:03.443Z,100620.81
2023-02-25T10:41:06.680Z,100633.72
2023-02-25T10:42:11.115Z,100620.25
2023-02-25T10:43:24.837Z,100633.44
2023-02-25T10:44:26.638Z,100630.06
2023-02-25T10:45:32.068Z,100644.09
2023-02-25T10:46:42.899Z,100598.59
2023-02-25T10:47:49.627Z,100654.66
2023-02-25T10:48:57.753Z,100613.03
2023-02-25T10:50:18.465Z,100665.75
2023-02-25T10:51:20.277Z,100604.06
2023-02-25T10:52:22.363Z,100607.28
2023-02-25T10:53:24.304Z,100608.97
2023-02-25T10:54:26.259Z,100641.88
2023-02-25T10:55:36.765Z,100672.78
2023-02-25T10:56:44.618Z,100632.88
2023-02-25T10:57:46.459Z,100621.75
2023-02-25T10:59:21.576Z,100668.84
2023-02-25T11:00:26.555Z,100667.72
2023-02-25T11:01:38.759Z,100641.19
2023-02-25T11:02:44.133Z,100630.50
2023-02-25T11:03:52.684Z,100662.97
2023-02-25T11:04:55.604Z,100661.81
2023-02-25T11:06:09.523Z,100640.59
2023-02-25T11:07:34.799Z,100671.50
2023-02-25T11:08:37.203Z,100663.22
2023-02-25T11:09:40.138Z,100628.06
2023-02-25T11:10:41.988Z,100662.94
2023-02-25T11:12:10.132Z,100673.88
2023-02-25T11:13:28.927Z,100605.88
2023-02-25T11:14:33.032Z,100670.81
2023-02-25T11:15:45.161Z,100640.59
2023-02-25T11:16:48.330Z,100634.84
2023-02-25T11:17:50.300Z,100607.28
2023-02-25T11:18:59.935Z,100623.56
2023-02-25T11:20:05.585Z,100638.31
2023-02-25T11:21:14.605Z,100626.94
2023-02-25T11:22:29.857Z,100567.25
2023-02-25T11:23:40.623Z,100672.19
2023-02-25T11:24:43.118Z,100663.91
2023-02-25T11:25:44.988Z,100644.09
2023-02-25T11:26:50.402Z,100652.38
2023-02-25T11:27:58.512Z,100629.47
2023-02-25T11:29:06.580Z,100658.69
2023-02-25T11:30:16.584Z,100688.50
2023-02-25T11:31:24.910Z,100686.81
2023-02-25T11:32:27.433Z,100668.56
2023-02-25T11:33:34.956Z,100672.19
2023-02-25T11:34:48.187Z,100634.94
2023-02-25T11:35:56.965Z,100646.31
2023-02-25T11:37:49.280Z,100686.53
2023-02-25T11:39:23.152Z,100637.88
2023-02-25T11:40:34.032Z,100654.94
2023-02-25T11:41:35.912Z,100678.81
2023-02-25T11:42:37.902Z,100653.06
2023-02-25T11:43:40.784Z,100696.66
2023-02-25T11:44:44.998Z,100645.47
2023-02-25T11:46:03.286Z,100678.81
2023-02-25T11:47:28.413Z,100643.22
2023-02-25T11:48:51.623Z,100679.50
2023-02-25T11:50:21.657Z,100693.28
2023-02-25T11:51:26.812Z,100688.78
2023-02-25T11:52:56.183Z,100705.38
2023-02-25T11:54:12.932Z,100705.91
2023-02-25T11:55:21.359Z,100708.88
2023-02-25T11:56:31.114Z,100696.66
2023-02-25T11:57:48.400Z,100627.75
2023-02-25T11:58:58.680Z,100714.47
2023-02-25T12:00:26.694Z,100698.75
2023-02-25T12:01:59.081Z,100667.66
2023-02-25T12:03:30.467Z,100638.69
2023-02-25T12:04:45.576Z,100686.81
2023-02-25T12:05:53.141Z,100643.88
2023-02-25T12:07:00.998Z,100717.84
2023-02-25T12:08:33.098Z,100719.53
2023-02-25T12:09:50.385Z,100725.59
2023-02-25T12:11:19.244Z,100721.94
2023-02-25T12:12:41.436Z,100710.28
2023-02-25T12:14:20.526Z,100719.97
2023-02-25T12:15:45.241Z,100724.34
2023-02-25T12:17:05.654Z,100719.72
2023-02-25T12:18:07.397Z,100721.94
2023-02-25T12:19:21.179Z,100720.69
2023-02-25T12:20:42.121Z,100718.84
2023-02-25T12:22:12.937Z,100721.09
2023-02-25T12:23:36.424Z,100719.41
2023-02-25T12:24:51.726Z,100698.47
2023-02-25T12:26:28.794Z,100718.84
2023-02-25T12:27:47.292Z,100723.63
2023-02-25T12:29:00.808Z,100696.22
2023-02-25T12:30:35.740Z,100720.94
2023-02-25T12:31:54.042Z,100685.38
2023-02-25T12:33:26.741Z,100714.50
2023-02-25T12:34:34.642Z,100722.63
2023-02-25T12:35:55.095Z,100721.09
2023-02-25T12:37:31.465Z,100723.38
2023-02-25T12:38:54.664Z,100720.81
2023-02-25T12:40:37.957Z,100722.22
2023-02-25T12:41:59.736Z,100718.72
2023-02-25T12:43:27.715Z,100730.41
2023-02-25T12:44:54.317Z,100722.22